sensor_id;sensor_type;location;lat;lon;timestamp;temperature;humidity
75769;DHT22;64379;48.888;8.330;2022-12-07T00:01:37;3.60;83.40
75769;DHT22;64379;48.888;8.330;2022-12-07T00:04:05;3.70;83.20
75769;DHT22;64379;48.888;8.330;2022-12-07T00:06:36;3.60;83.30
75769;DHT22;64379;48.888;8.330;2022-12-07T00:09:03;3.70;83.10
75769;DHT22;64379;48.888;8.330;2022-12-07T00:11:29;3.60;83.20
75769;DHT22;64379;48.888;8.330;2022-12-07T00:14:00;3.60;83.40
75769;DHT22;64379;48.888;8.330;2022-12-07T00:16:29;3.60;83.50
75769;DHT22;64379;48.888;8.330;2022-12-07T00:18:55;3.50;83.70
75769;DHT22;64379;48.888;8.330;2022-12-07T00:21:24;3.60;83.60
75769;DHT22;64379;48.888;8.330;2022-12-07T00:23:51;3.60;83.70
75769;DHT22;64379;48.888;8.330;2022-12-07T00:26:22;3.50;84.10
75769;DHT22;64379;48.888;8.330;2022-12-07T00:28:50;3.50;84.30
75769;DHT22;64379;48.888;8.330;2022-12-07T00:31:17;3.60;84.20
75769;DHT22;64379;48.888;8.330;2022-12-07T00:33:43;3.60;84.10
75769;DHT22;64379;48.888;8.330;2022-12-07T00:36:12;3.60;84.00
75769;DHT22;64379;48.888;8.330;2022-12-07T00:38:38;3.60;84.00
75769;DHT22;64379;48.888;8.330;2022-12-07T00:41:07;3.60;84.20
75769;DHT22;64379;48.888;8.330;2022-12-07T00:43:33;3.60;84.30
75769;DHT22;64379;48.888;8.330;2022-12-07T00:45:59;3.50;84.70
75769;DHT22;64379;48.888;8.330;2022-12-07T00:48:24;3.60;84.50
75769;DHT22;64379;48.888;8.330;2022-12-07T00:50:51;3.60;84.30
75769;DHT22;64379;48.888;8.330;2022-12-07T00:53:16;3.60;84.50
75769;DHT22;64379;48.888;8.330;2022-12-07T00:55:42;3.60;84.60
75769;DHT22;64379;48.888;8.330;2022-12-07T00:58:09;3.60;84.60
75769;DHT22;64379;48.888;8.330;2022-12-07T01:00:39;3.50;84.80
75769;DHT22;64379;48.888;8.330;2022-12-07T01:03:06;3.60;84.60
75769;DHT22;64379;48.888;8.330;2022-12-07T01:05:32;3.60;84.50
75769;DHT22;64379;48.888;8.330;2022-12-07T01:07:58;3.60;84.50
75769;DHT22;64379;48.888;8.330;2022-12-07T01:10:24;3.60;84.30
75769;DHT22;64379;48.888;8.330;2022-12-07T01:12:49;3.60;84.60
75769;DHT22;64379;48.888;8.330;2022-12-07T01:15:15;3.50;84.80
75769;DHT22;64379;48.888;8.330;2022-12-07T01:17:41;3.60;84.80
75769;DHT22;64379;48.888;8.330;2022-12-07T01:20:07;3.60;84.60
75769;DHT22;64379;48.888;8.330;2022-12-07T01:22:37;3.60;84.60
75769;DHT22;64379;48.888;8.330;2022-12-07T01:25:03;3.50;84.70
75769;DHT22;64379;48.888;8.330;2022-12-07T01:27:29;3.60;84.70
75769;DHT22;64379;48.888;8.330;2022-12-07T01:29:55;3.50;84.90
75769;DHT22;64379;48.888;8.330;2022-12-07T01:32:20;3.50;84.80
75769;DHT22;64379;48.888;8.330;2022-12-07T01:34:48;3.60;84.60
75769;DHT22;64379;48.888;8.330;2022-12-07T01:37:13;3.60;84.30
75769;DHT22;64379;48.888;8.330;2022-12-07T01:39:39;3.70;84.00
75769;DHT22;64379;48.888;8.330;2022-12-07T01:42:04;3.60;84.10
75769;DHT22;64379;48.888;8.330;2022-12-07T01:44:30;3.60;84.20
75769;DHT22;64379;48.888;8.330;2022-12-07T01:46:58;3.60;84.30
75769;DHT22;64379;48.888;8.330;2022-12-07T01:51:56;3.70;84.10
75769;DHT22;64379;48.888;8.330;2022-12-07T01:54:23;3.60;84.30
75769;DHT22;64379;48.888;8.330;2022-12-07T01:56:54;3.60;84.30
75769;DHT22;64379;48.888;8.330;2022-12-07T01:59:22;3.60;84.40
75769;DHT22;64379;48.888;8.330;2022-12-07T02:01:50;3.60;84.30
75769;DHT22;64379;48.888;8.330;2022-12-07T02:04:16;3.50;84.40
75769;DHT22;64379;48.888;8.330;2022-12-07T02:06:43;3.60;84.30
75769;DHT22;64379;48.888;8.330;2022-12-07T02:09:09;3.60;84.10
75769;DHT22;64379;48.888;8.330;2022-12-07T02:11:35;3.60;84.00
75769;DHT22;64379;48.888;8.330;2022-12-07T02:14:01;3.60;84.00
75769;DHT22;64379;48.888;8.330;2022-12-07T02:19:45;3.50;84.10
75769;DHT22;64379;48.888;8.330;2022-12-07T02:25:11;3.40;84.80
75769;DHT22;64379;48.888;8.330;2022-12-07T02:27:53;3.40;84.60
75769;DHT22;64379;48.888;8.330;2022-12-07T02:30:23;3.30;84.70
75769;DHT22;64379;48.888;8.330;2022-12-07T02:32:55;3.30;84.90
75769;DHT22;64379;48.888;8.330;2022-12-07T02:35:41;3.40;84.60
75769;DHT22;64379;48.888;8.330;2022-12-07T02:40:51;3.50;83.90
75769;DHT22;64379;48.888;8.330;2022-12-07T02:43:34;3.40;83.90
75769;DHT22;64379;48.888;8.330;2022-12-07T02:46:05;3.30;84.20
75769;DHT22;64379;48.888;8.330;2022-12-07T02:48:33;3.30;84.20
75769;DHT22;64379;48.888;8.330;2022-12-07T02:50:59;3.30;84.10
75769;DHT22;64379;48.888;8.330;2022-12-07T02:53:34;3.40;84.00
75769;DHT22;64379;48.888;8.330;2022-12-07T03:07:00;3.40;84.70
75769;DHT22;64379;48.888;8.330;2022-12-07T03:12:05;3.50;83.80
75769;DHT22;64379;48.888;8.330;2022-12-07T03:14:38;3.50;83.90
75769;DHT22;64379;48.888;8.330;2022-12-07T03:17:13;3.50;83.90
75769;DHT22;64379;48.888;8.330;2022-12-07T03:19:42;3.50;84.00
75769;DHT22;64379;48.888;8.330;2022-12-07T03:22:10;3.50;84.10
75769;DHT22;64379;48.888;8.330;2022-12-07T03:24:54;3.50;84.60
75769;DHT22;64379;48.888;8.330;2022-12-07T03:27:42;3.50;84.60
75769;DHT22;64379;48.888;8.330;2022-12-07T03:30:13;3.50;84.10
75769;DHT22;64379;48.888;8.330;2022-12-07T03:32:44;3.50;84.20
75769;DHT22;64379;48.888;8.330;2022-12-07T03:35:21;3.50;84.10
75769;DHT22;64379;48.888;8.330;2022-12-07T03:37:55;3.50;84.20
75769;DHT22;64379;48.888;8.330;2022-12-07T03:40:30;3.40;84.50
75769;DHT22;64379;48.888;8.330;2022-12-07T03:42:59;3.40;84.50
75769;DHT22;64379;48.888;8.330;2022-12-07T03:48:24;3.40;84.50
75769;DHT22;64379;48.888;8.330;2022-12-07T03:53:32;3.30;84.70
75769;DHT22;64379;48.888;8.330;2022-12-07T03:56:00;3.10;84.90
75769;DHT22;64379;48.888;8.330;2022-12-07T03:58:27;3.10;85.00
75769;DHT22;64379;48.888;8.330;2022-12-07T04:00:55;3.00;85.10
75769;DHT22;64379;48.888;8.330;2022-12-07T04:03:21;2.90;85.30
75769;DHT22;64379;48.888;8.330;2022-12-07T04:05:47;2.80;85.50
75769;DHT22;64379;48.888;8.330;2022-12-07T04:08:12;2.80;85.60
75769;DHT22;64379;48.888;8.330;2022-12-07T04:10:38;3.00;84.90
75769;DHT22;64379;48.888;8.330;2022-12-07T04:13:03;3.00;84.20
75769;DHT22;64379;48.888;8.330;2022-12-07T04:15:29;3.00;84.20
75769;DHT22;64379;48.888;8.330;2022-12-07T04:17:54;3.00;84.40
75769;DHT22;64379;48.888;8.330;2022-12-07T04:20:20;3.00;84.20
75769;DHT22;64379;48.888;8.330;2022-12-07T04:22:46;2.90;84.40
75769;DHT22;64379;48.888;8.330;2022-12-07T04:25:12;2.90;84.50
75769;DHT22;64379;48.888;8.330;2022-12-07T04:27:38;2.60;84.90
75769;DHT22;64379;48.888;8.330;2022-12-07T04:30:04;2.70;85.70
75769;DHT22;64379;48.888;8.330;2022-12-07T04:32:30;2.70;85.80
75769;DHT22;64379;48.888;8.330;2022-12-07T04:34:55;2.70;86.00
75769;DHT22;64379;48.888;8.330;2022-12-07T04:37:21;2.70;86.20
75769;DHT22;64379;48.888;8.330;2022-12-07T04:39:47;2.70;86.30
75769;DHT22;64379;48.888;8.330;2022-12-07T04:42:13;2.80;86.00
75769;DHT22;64379;48.888;8.330;2022-12-07T04:44:38;2.80;85.90
75769;DHT22;64379;48.888;8.330;2022-12-07T04:47:04;2.90;85.50
75769;DHT22;64379;48.888;8.330;2022-12-07T04:49:30;2.80;85.60
75769;DHT22;64379;48.888;8.330;2022-12-07T04:51:55;2.70;85.50
75769;DHT22;64379;48.888;8.330;2022-12-07T04:54:21;2.70;85.70
75769;DHT22;64379;48.888;8.330;2022-12-07T04:56:47;2.70;85.50
75769;DHT22;64379;48.888;8.330;2022-12-07T04:59:13;2.70;85.70
75769;DHT22;64379;48.888;8.330;2022-12-07T05:01:39;2.60;85.70
75769;DHT22;64379;48.888;8.330;2022-12-07T05:04:05;2.60;85.70
75769;DHT22;64379;48.888;8.330;2022-12-07T05:06:31;2.60;85.80
75769;DHT22;64379;48.888;8.330;2022-12-07T05:08:57;2.60;85.70
75769;DHT22;64379;48.888;8.330;2022-12-07T05:11:23;2.50;85.90
75769;DHT22;64379;48.888;8.330;2022-12-07T05:14:18;2.50;86.10
75769;DHT22;64379;48.888;8.330;2022-12-07T05:16:46;2.50;86.10
75769;DHT22;64379;48.888;8.330;2022-12-07T05:19:12;2.70;85.60
75769;DHT22;64379;48.888;8.330;2022-12-07T05:21:38;2.70;85.00
75769;DHT22;64379;48.888;8.330;2022-12-07T05:24:05;2.80;84.70
75769;DHT22;64379;48.888;8.330;2022-12-07T05:26:31;2.90;83.60
75769;DHT22;64379;48.888;8.330;2022-12-07T05:28:57;2.90;83.00
75769;DHT22;64379;48.888;8.330;2022-12-07T05:31:24;2.90;82.60
75769;DHT22;64379;48.888;8.330;2022-12-07T05:33:50;3.00;82.50
75769;DHT22;64379;48.888;8.330;2022-12-07T05:36:15;3.00;82.10
75769;DHT22;64379;48.888;8.330;2022-12-07T05:38:41;3.00;81.50
75769;DHT22;64379;48.888;8.330;2022-12-07T05:41:08;3.00;81.10
75769;DHT22;64379;48.888;8.330;2022-12-07T05:43:53;3.10;80.90
75769;DHT22;64379;48.888;8.330;2022-12-07T05:46:19;3.10;80.20
75769;DHT22;64379;48.888;8.330;2022-12-07T05:48:45;3.10;80.40
75769;DHT22;64379;48.888;8.330;2022-12-07T05:51:10;3.10;79.60
75769;DHT22;64379;48.888;8.330;2022-12-07T05:53:36;3.10;79.50
75769;DHT22;64379;48.888;8.330;2022-12-07T05:56:01;3.10;79.50
75769;DHT22;64379;48.888;8.330;2022-12-07T05:58:27;3.10;79.10
75769;DHT22;64379;48.888;8.330;2022-12-07T06:01:11;3.30;78.70
75769;DHT22;64379;48.888;8.330;2022-12-07T06:03:36;3.20;78.90
75769;DHT22;64379;48.888;8.330;2022-12-07T06:06:02;3.20;78.70
75769;DHT22;64379;48.888;8.330;2022-12-07T06:08:28;3.30;78.50
75769;DHT22;64379;48.888;8.330;2022-12-07T06:10:53;3.10;78.90
75769;DHT22;64379;48.888;8.330;2022-12-07T06:13:39;3.10;79.00
75769;DHT22;64379;48.888;8.330;2022-12-07T06:16:05;3.10;79.60
75769;DHT22;64379;48.888;8.330;2022-12-07T06:18:30;3.10;79.50
75769;DHT22;64379;48.888;8.330;2022-12-07T06:20:56;3.30;77.50
75769;DHT22;64379;48.888;8.330;2022-12-07T06:23:21;3.30;77.30
75769;DHT22;64379;48.888;8.330;2022-12-07T06:25:47;3.20;77.10
75769;DHT22;64379;48.888;8.330;2022-12-07T06:28:13;3.30;76.90
75769;DHT22;64379;48.888;8.330;2022-12-07T06:30:38;3.30;77.30
75769;DHT22;64379;48.888;8.330;2022-12-07T06:33:04;3.20;77.20
75769;DHT22;64379;48.888;8.330;2022-12-07T06:35:29;3.20;76.80
75769;DHT22;64379;48.888;8.330;2022-12-07T06:37:55;3.30;76.70
75769;DHT22;64379;48.888;8.330;2022-12-07T06:40:20;3.20;76.40
75769;DHT22;64379;48.888;8.330;2022-12-07T06:42:46;3.20;76.10
75769;DHT22;64379;48.888;8.330;2022-12-07T06:45:11;3.30;75.10
75769;DHT22;64379;48.888;8.330;2022-12-07T06:47:37;3.30;74.60
75769;DHT22;64379;48.888;8.330;2022-12-07T06:50:03;3.30;74.50
75769;DHT22;64379;48.888;8.330;2022-12-07T06:52:30;3.30;74.10
75769;DHT22;64379;48.888;8.330;2022-12-07T06:54:55;3.30;74.50
75769;DHT22;64379;48.888;8.330;2022-12-07T06:57:21;3.40;73.80
75769;DHT22;64379;48.888;8.330;2022-12-07T06:59:47;3.30;73.80
75769;DHT22;64379;48.888;8.330;2022-12-07T07:02:13;3.30;73.70
75769;DHT22;64379;48.888;8.330;2022-12-07T07:04:39;3.50;72.90
75769;DHT22;64379;48.888;8.330;2022-12-07T07:07:04;3.40;73.00
75769;DHT22;64379;48.888;8.330;2022-12-07T07:09:30;3.50;72.90
75769;DHT22;64379;48.888;8.330;2022-12-07T07:11:55;3.50;72.90
75769;DHT22;64379;48.888;8.330;2022-12-07T07:14:21;3.50;72.70
75769;DHT22;64379;48.888;8.330;2022-12-07T07:16:47;3.50;73.00
75769;DHT22;64379;48.888;8.330;2022-12-07T07:19:12;3.50;72.80
75769;DHT22;64379;48.888;8.330;2022-12-07T07:21:38;3.50;72.40
75769;DHT22;64379;48.888;8.330;2022-12-07T07:24:04;3.50;71.70
75769;DHT22;64379;48.888;8.330;2022-12-07T07:26:29;3.60;71.30
75769;DHT22;64379;48.888;8.330;2022-12-07T07:28:55;3.60;71.50
75769;DHT22;64379;48.888;8.330;2022-12-07T07:31:21;3.50;71.10
75769;DHT22;64379;48.888;8.330;2022-12-07T07:33:46;3.60;70.40
75769;DHT22;64379;48.888;8.330;2022-12-07T07:36:12;3.60;70.40
75769;DHT22;64379;48.888;8.330;2022-12-07T07:38:38;3.70;69.80
75769;DHT22;64379;48.888;8.330;2022-12-07T07:41:03;3.70;69.50
75769;DHT22;64379;48.888;8.330;2022-12-07T07:43:29;3.70;69.70
75769;DHT22;64379;48.888;8.330;2022-12-07T07:45:54;3.70;69.60
75769;DHT22;64379;48.888;8.330;2022-12-07T07:48:20;3.70;69.70
75769;DHT22;64379;48.888;8.330;2022-12-07T07:50:48;3.80;69.30
75769;DHT22;64379;48.888;8.330;2022-12-07T07:53:13;3.70;69.90
75769;DHT22;64379;48.888;8.330;2022-12-07T07:55:39;3.70;70.20
75769;DHT22;64379;48.888;8.330;2022-12-07T07:58:04;3.70;70.10
75769;DHT22;64379;48.888;8.330;2022-12-07T08:00:30;3.70;70.40
75769;DHT22;64379;48.888;8.330;2022-12-07T08:02:56;3.70;71.00
75769;DHT22;64379;48.888;8.330;2022-12-07T08:05:21;3.70;70.50
75769;DHT22;64379;48.888;8.330;2022-12-07T08:07:47;3.80;70.20
75769;DHT22;64379;48.888;8.330;2022-12-07T08:10:13;3.70;70.80
75769;DHT22;64379;48.888;8.330;2022-12-07T08:12:43;3.80;70.80
75769;DHT22;64379;48.888;8.330;2022-12-07T08:15:27;3.90;70.70
75769;DHT22;64379;48.888;8.330;2022-12-07T08:17:53;3.90;70.80
75769;DHT22;64379;48.888;8.330;2022-12-07T08:20:19;3.90;70.80
75769;DHT22;64379;48.888;8.330;2022-12-07T08:22:45;3.80;71.00
75769;DHT22;64379;48.888;8.330;2022-12-07T08:25:10;3.70;71.80
75769;DHT22;64379;48.888;8.330;2022-12-07T08:27:36;3.70;71.90
75769;DHT22;64379;48.888;8.330;2022-12-07T08:30:02;3.70;72.60
75769;DHT22;64379;48.888;8.330;2022-12-07T08:32:28;3.70;73.10
75769;DHT22;64379;48.888;8.330;2022-12-07T08:34:53;3.70;73.20
75769;DHT22;64379;48.888;8.330;2022-12-07T08:37:19;3.60;73.40
75769;DHT22;64379;48.888;8.330;2022-12-07T08:39:44;3.60;73.60
75769;DHT22;64379;48.888;8.330;2022-12-07T08:42:10;3.60;72.80
75769;DHT22;64379;48.888;8.330;2022-12-07T08:44:36;3.60;73.80
75769;DHT22;64379;48.888;8.330;2022-12-07T08:47:04;3.60;73.20
75769;DHT22;64379;48.888;8.330;2022-12-07T08:49:35;3.60;73.60
75769;DHT22;64379;48.888;8.330;2022-12-07T08:52:03;3.60;73.30
75769;DHT22;64379;48.888;8.330;2022-12-07T08:54:29;3.60;74.00
75769;DHT22;64379;48.888;8.330;2022-12-07T08:56:56;3.60;73.80
75769;DHT22;64379;48.888;8.330;2022-12-07T08:59:22;3.60;75.10
75769;DHT22;64379;48.888;8.330;2022-12-07T09:01:48;3.50;74.80
75769;DHT22;64379;48.888;8.330;2022-12-07T09:04:14;3.60;74.80
75769;DHT22;64379;48.888;8.330;2022-12-07T09:06:41;3.50;75.20
75769;DHT22;64379;48.888;8.330;2022-12-07T09:09:08;3.50;75.70
75769;DHT22;64379;48.888;8.330;2022-12-07T09:11:34;3.60;74.00
75769;DHT22;64379;48.888;8.330;2022-12-07T09:14:00;3.60;74.40
75769;DHT22;64379;48.888;8.330;2022-12-07T09:16:25;3.60;73.80
75769;DHT22;64379;48.888;8.330;2022-12-07T09:18:51;3.50;74.10
75769;DHT22;64379;48.888;8.330;2022-12-07T09:21:17;3.60;74.80
75769;DHT22;64379;48.888;8.330;2022-12-07T09:23:42;3.60;75.00
75769;DHT22;64379;48.888;8.330;2022-12-07T09:26:08;3.50;75.40
75769;DHT22;64379;48.888;8.330;2022-12-07T09:28:34;3.60;75.30
75769;DHT22;64379;48.888;8.330;2022-12-07T09:30:59;3.60;75.20
75769;DHT22;64379;48.888;8.330;2022-12-07T09:33:25;3.60;75.90
75769;DHT22;64379;48.888;8.330;2022-12-07T09:35:51;3.70;76.10
75769;DHT22;64379;48.888;8.330;2022-12-07T09:38:18;3.60;76.60
75769;DHT22;64379;48.888;8.330;2022-12-07T09:40:45;3.60;76.70
75769;DHT22;64379;48.888;8.330;2022-12-07T09:43:20;3.70;76.00
75769;DHT22;64379;48.888;8.330;2022-12-07T09:45:48;3.70;75.40
75769;DHT22;64379;48.888;8.330;2022-12-07T09:48:29;3.80;75.00
75769;DHT22;64379;48.888;8.330;2022-12-07T09:50:57;3.80;74.90
75769;DHT22;64379;48.888;8.330;2022-12-07T09:53:32;3.70;75.90
75769;DHT22;64379;48.888;8.330;2022-12-07T09:55:59;3.80;75.40
75769;DHT22;64379;48.888;8.330;2022-12-07T09:58:26;3.90;75.00
75769;DHT22;64379;48.888;8.330;2022-12-07T10:01:05;3.90;74.60
75769;DHT22;64379;48.888;8.330;2022-12-07T10:03:31;3.90;74.80
75769;DHT22;64379;48.888;8.330;2022-12-07T10:05:57;3.90;74.90
75769;DHT22;64379;48.888;8.330;2022-12-07T10:08:24;3.90;74.70
75769;DHT22;64379;48.888;8.330;2022-12-07T10:10:53;3.90;74.40
75769;DHT22;64379;48.888;8.330;2022-12-07T10:13:42;3.90;73.90
75769;DHT22;64379;48.888;8.330;2022-12-07T10:18:50;4.00;72.90
75769;DHT22;64379;48.888;8.330;2022-12-07T10:21:17;4.00;73.00
75769;DHT22;64379;48.888;8.330;2022-12-07T10:26:53;4.00;73.10
75769;DHT22;64379;48.888;8.330;2022-12-07T10:29:28;4.10;73.00
75769;DHT22;64379;48.888;8.330;2022-12-07T10:34:43;4.10;72.80
75769;DHT22;64379;48.888;8.330;2022-12-07T10:44:41;4.10;73.10
75769;DHT22;64379;48.888;8.330;2022-12-07T10:55:33;4.20;73.10
75769;DHT22;64379;48.888;8.330;2022-12-07T11:01:14;4.10;73.00
75769;DHT22;64379;48.888;8.330;2022-12-07T11:03:46;4.10;73.30
75769;DHT22;64379;48.888;8.330;2022-12-07T11:09:45;4.20;72.50
75769;DHT22;64379;48.888;8.330;2022-12-07T11:15:17;4.30;73.10
75769;DHT22;64379;48.888;8.330;2022-12-07T11:26:28;4.30;73.30
75769;DHT22;64379;48.888;8.330;2022-12-07T11:34:57;4.20;73.20
75769;DHT22;64379;48.888;8.330;2022-12-07T11:37:30;4.30;72.80
75769;DHT22;64379;48.888;8.330;2022-12-07T11:40:03;4.30;72.90
75769;DHT22;64379;48.888;8.330;2022-12-07T11:42:36;4.40;72.40
75769;DHT22;64379;48.888;8.330;2022-12-07T11:45:12;4.40;72.40
75769;DHT22;64379;48.888;8.330;2022-12-07T11:50:35;4.40;72.40
75769;DHT22;64379;48.888;8.330;2022-12-07T11:55:48;4.40;72.20
75769;DHT22;64379;48.888;8.330;2022-12-07T12:01:11;4.40;72.70
75769;DHT22;64379;48.888;8.330;2022-12-07T12:03:42;4.40;72.40
75769;DHT22;64379;48.888;8.330;2022-12-07T12:06:09;4.50;72.90
75769;DHT22;64379;48.888;8.330;2022-12-07T12:09:33;4.50;72.50
75769;DHT22;64379;48.888;8.330;2022-12-07T12:19:46;4.40;72.90
75769;DHT22;64379;48.888;8.330;2022-12-07T12:22:21;4.40;73.10
75769;DHT22;64379;48.888;8.330;2022-12-07T12:24:53;4.30;73.10
75769;DHT22;64379;48.888;8.330;2022-12-07T12:27:33;4.30;73.40
75769;DHT22;64379;48.888;8.330;2022-12-07T12:30:03;4.30;73.90
75769;DHT22;64379;48.888;8.330;2022-12-07T12:32:39;4.30;73.50
75769;DHT22;64379;48.888;8.330;2022-12-07T12:35:30;4.30;73.20
75769;DHT22;64379;48.888;8.330;2022-12-07T12:38:32;4.40;73.20
75769;DHT22;64379;48.888;8.330;2022-12-07T12:41:02;4.40;73.30
75769;DHT22;64379;48.888;8.330;2022-12-07T12:43:49;4.30;73.30
75769;DHT22;64379;48.888;8.330;2022-12-07T12:51:41;4.30;73.60
75769;DHT22;64379;48.888;8.330;2022-12-07T13:02:06;4.30;74.50
75769;DHT22;64379;48.888;8.330;2022-12-07T13:04:35;4.30;74.40
75769;DHT22;64379;48.888;8.330;2022-12-07T13:07:02;4.30;74.70
75769;DHT22;64379;48.888;8.330;2022-12-07T13:09:30;4.30;74.20
75769;DHT22;64379;48.888;8.330;2022-12-07T13:12:11;4.30;74.20
75769;DHT22;64379;48.888;8.330;2022-12-07T13:20:03;4.30;74.40
75769;DHT22;64379;48.888;8.330;2022-12-07T13:25:12;4.30;74.40
75769;DHT22;64379;48.888;8.330;2022-12-07T13:27:41;4.30;74.30
75769;DHT22;64379;48.888;8.330;2022-12-07T13:30:17;4.30;74.50
75769;DHT22;64379;48.888;8.330;2022-12-07T13:32:54;4.30;74.50
75769;DHT22;64379;48.888;8.330;2022-12-07T13:35:34;4.20;74.50
75769;DHT22;64379;48.888;8.330;2022-12-07T13:38:04;4.20;74.80
75769;DHT22;64379;48.888;8.330;2022-12-07T13:40:30;4.30;75.10
75769;DHT22;64379;48.888;8.330;2022-12-07T13:43:04;4.30;74.40
75769;DHT22;64379;48.888;8.330;2022-12-07T13:45:32;4.20;74.70
75769;DHT22;64379;48.888;8.330;2022-12-07T13:48:30;4.30;74.70
75769;DHT22;64379;48.888;8.330;2022-12-07T13:50:59;4.30;74.70
75769;DHT22;64379;48.888;8.330;2022-12-07T13:53:26;4.30;74.70
75769;DHT22;64379;48.888;8.330;2022-12-07T13:55:58;4.30;74.80
75769;DHT22;64379;48.888;8.330;2022-12-07T13:58:27;4.30;75.00
75769;DHT22;64379;48.888;8.330;2022-12-07T14:00:55;4.30;74.80
75769;DHT22;64379;48.888;8.330;2022-12-07T14:03:28;4.20;75.00
75769;DHT22;64379;48.888;8.330;2022-12-07T14:06:18;4.30;75.00
75769;DHT22;64379;48.888;8.330;2022-12-07T14:08:45;4.30;75.10
75769;DHT22;64379;48.888;8.330;2022-12-07T14:11:16;4.20;75.30
75769;DHT22;64379;48.888;8.330;2022-12-07T14:14:00;4.30;75.10
75769;DHT22;64379;48.888;8.330;2022-12-07T14:16:35;4.20;75.40
75769;DHT22;64379;48.888;8.330;2022-12-07T14:19:03;4.30;75.40
75769;DHT22;64379;48.888;8.330;2022-12-07T14:21:31;4.30;76.00
75769;DHT22;64379;48.888;8.330;2022-12-07T14:24:18;4.30;75.80
75769;DHT22;64379;48.888;8.330;2022-12-07T14:26:46;4.30;75.70
75769;DHT22;64379;48.888;8.330;2022-12-07T14:31:54;4.30;75.80
75769;DHT22;64379;48.888;8.330;2022-12-07T14:34:21;4.30;75.90
75769;DHT22;64379;48.888;8.330;2022-12-07T14:36:47;4.30;76.20
75769;DHT22;64379;48.888;8.330;2022-12-07T14:39:13;4.30;76.10
75769;DHT22;64379;48.888;8.330;2022-12-07T14:41:38;4.30;76.00
75769;DHT22;64379;48.888;8.330;2022-12-07T14:44:16;4.30;76.20
75769;DHT22;64379;48.888;8.330;2022-12-07T14:46:42;4.30;76.50
75769;DHT22;64379;48.888;8.330;2022-12-07T14:49:07;4.20;76.20
75769;DHT22;64379;48.888;8.330;2022-12-07T14:51:35;4.30;76.50
75769;DHT22;64379;48.888;8.330;2022-12-07T14:54:01;4.30;76.40
75769;DHT22;64379;48.888;8.330;2022-12-07T14:56:27;4.20;76.50
75769;DHT22;64379;48.888;8.330;2022-12-07T14:58:53;4.30;76.40
75769;DHT22;64379;48.888;8.330;2022-12-07T15:01:18;4.30;76.40
75769;DHT22;64379;48.888;8.330;2022-12-07T15:03:44;4.30;76.30
75769;DHT22;64379;48.888;8.330;2022-12-07T15:06:14;4.30;76.60
75769;DHT22;64379;48.888;8.330;2022-12-07T15:08:39;4.40;76.10
75769;DHT22;64379;48.888;8.330;2022-12-07T15:11:05;4.40;75.70
75769;DHT22;64379;48.888;8.330;2022-12-07T15:13:31;4.30;75.90
75769;DHT22;64379;48.888;8.330;2022-12-07T15:16:19;4.30;75.90
75769;DHT22;64379;48.888;8.330;2022-12-07T15:18:45;4.30;75.50
75769;DHT22;64379;48.888;8.330;2022-12-07T15:21:14;4.30;75.40
75769;DHT22;64379;48.888;8.330;2022-12-07T15:23:39;4.30;75.30
75769;DHT22;64379;48.888;8.330;2022-12-07T15:26:05;4.30;75.30
75769;DHT22;64379;48.888;8.330;2022-12-07T15:28:31;4.30;75.50
75769;DHT22;64379;48.888;8.330;2022-12-07T15:30:56;4.30;75.80
75769;DHT22;64379;48.888;8.330;2022-12-07T15:33:22;4.20;75.90
75769;DHT22;64379;48.888;8.330;2022-12-07T15:35:48;4.20;76.00
75769;DHT22;64379;48.888;8.330;2022-12-07T15:38:13;4.20;76.10
75769;DHT22;64379;48.888;8.330;2022-12-07T15:40:39;4.20;76.20
75769;DHT22;64379;48.888;8.330;2022-12-07T15:43:05;4.20;76.30
75769;DHT22;64379;48.888;8.330;2022-12-07T15:45:50;4.20;76.20
75769;DHT22;64379;48.888;8.330;2022-12-07T15:48:16;4.20;76.40
75769;DHT22;64379;48.888;8.330;2022-12-07T15:50:41;4.10;76.10
75769;DHT22;64379;48.888;8.330;2022-12-07T15:53:07;4.10;76.30
75769;DHT22;64379;48.888;8.330;2022-12-07T15:55:32;4.10;76.20
75769;DHT22;64379;48.888;8.330;2022-12-07T15:57:58;4.10;76.50
75769;DHT22;64379;48.888;8.330;2022-12-07T16:00:23;4.10;76.10
75769;DHT22;64379;48.888;8.330;2022-12-07T16:02:49;4.10;76.40
75769;DHT22;64379;48.888;8.330;2022-12-07T16:05:14;4.10;76.20
75769;DHT22;64379;48.888;8.330;2022-12-07T16:07:40;4.00;76.50
75769;DHT22;64379;48.888;8.330;2022-12-07T16:10:06;4.10;76.10
75769;DHT22;64379;48.888;8.330;2022-12-07T16:12:32;4.00;76.40
75769;DHT22;64379;48.888;8.330;2022-12-07T16:14:57;4.00;76.50
75769;DHT22;64379;48.888;8.330;2022-12-07T16:17:23;4.00;76.40
75769;DHT22;64379;48.888;8.330;2022-12-07T16:19:49;4.10;76.50
75769;DHT22;64379;48.888;8.330;2022-12-07T16:22:14;4.10;76.40
75769;DHT22;64379;48.888;8.330;2022-12-07T16:24:40;4.10;76.50
75769;DHT22;64379;48.888;8.330;2022-12-07T16:27:05;4.10;76.60
75769;DHT22;64379;48.888;8.330;2022-12-07T16:29:31;4.00;76.60
75769;DHT22;64379;48.888;8.330;2022-12-07T16:31:56;4.00;76.50
75769;DHT22;64379;48.888;8.330;2022-12-07T16:34:22;4.00;76.60
75769;DHT22;64379;48.888;8.330;2022-12-07T16:36:48;4.00;76.40
75769;DHT22;64379;48.888;8.330;2022-12-07T16:39:13;4.00;76.40
75769;DHT22;64379;48.888;8.330;2022-12-07T16:41:39;4.00;76.50
75769;DHT22;64379;48.888;8.330;2022-12-07T16:44:07;4.10;76.30
75769;DHT22;64379;48.888;8.330;2022-12-07T16:46:33;4.10;76.20
75769;DHT22;64379;48.888;8.330;2022-12-07T16:48:59;4.00;76.50
75769;DHT22;64379;48.888;8.330;2022-12-07T16:51:25;4.00;76.50
75769;DHT22;64379;48.888;8.330;2022-12-07T16:53:52;4.00;76.70
75769;DHT22;64379;48.888;8.330;2022-12-07T16:56:18;4.00;76.60
75769;DHT22;64379;48.888;8.330;2022-12-07T16:58:44;4.10;76.40
75769;DHT22;64379;48.888;8.330;2022-12-07T17:01:13;4.00;76.60
75769;DHT22;64379;48.888;8.330;2022-12-07T17:03:39;4.10;76.80
75769;DHT22;64379;48.888;8.330;2022-12-07T17:06:21;4.10;76.80
75769;DHT22;64379;48.888;8.330;2022-12-07T17:08:49;4.00;77.10
75769;DHT22;64379;48.888;8.330;2022-12-07T17:11:23;4.00;77.20
75769;DHT22;64379;48.888;8.330;2022-12-07T17:13:50;4.00;77.20
75769;DHT22;64379;48.888;8.330;2022-12-07T17:16:35;4.00;77.30
75769;DHT22;64379;48.888;8.330;2022-12-07T17:19:04;4.00;77.20
75769;DHT22;64379;48.888;8.330;2022-12-07T17:21:31;3.90;77.20
75769;DHT22;64379;48.888;8.330;2022-12-07T17:23:59;3.90;77.30
75769;DHT22;64379;48.888;8.330;2022-12-07T17:26:26;3.90;77.30
75769;DHT22;64379;48.888;8.330;2022-12-07T17:28:52;3.90;77.20
75769;DHT22;64379;48.888;8.330;2022-12-07T17:31:20;3.90;77.20
75769;DHT22;64379;48.888;8.330;2022-12-07T17:33:46;4.00;77.70
75769;DHT22;64379;48.888;8.330;2022-12-07T17:36:17;4.10;76.60
75769;DHT22;64379;48.888;8.330;2022-12-07T17:38:43;4.00;76.90
75769;DHT22;64379;48.888;8.330;2022-12-07T17:41:14;3.90;77.20
75769;DHT22;64379;48.888;8.330;2022-12-07T17:44:00;3.90;77.30
75769;DHT22;64379;48.888;8.330;2022-12-07T17:46:26;3.90;77.40
75769;DHT22;64379;48.888;8.330;2022-12-07T17:48:56;3.90;77.50
75769;DHT22;64379;48.888;8.330;2022-12-07T17:51:21;3.90;77.60
75769;DHT22;64379;48.888;8.330;2022-12-07T17:54:06;3.70;77.90